createdAt,value
2019-02-14T00:01:19.697Z,8.13
2019-02-14T00:03:48.999Z,7.67
2019-02-14T00:06:18.339Z,8.00
2019-02-14T00:08:47.734Z,7.90
2019-02-14T00:11:17.114Z,7.17
2019-02-14T00:13:47.583Z,6.60
2019-02-14T00:16:17.143Z,7.63
2019-02-14T00:18:46.586Z,6.43
2019-02-14T00:21:16.104Z,7.73
2019-02-14T00:23:45.638Z,7.83
2019-02-14T00:26:15.092Z,7.87
2019-02-14T00:28:44.741Z,8.83
2019-02-14T00:31:30.250Z,9.60
2019-02-14T00:33:59.595Z,13.10
2019-02-14T00:36:29.092Z,11.53
2019-02-14T00:38:58.764Z,11.60
2019-02-14T00:41:28.660Z,12.63
2019-02-14T00:43:58.486Z,10.70
2019-02-14T00:46:28.212Z,8.90
2019-02-14T00:48:57.751Z,8.30
2019-02-14T00:51:27.500Z,7.30
2019-02-14T00:53:56.880Z,8.17
2019-02-14T00:56:26.262Z,7.40
2019-02-14T00:58:56.802Z,7.17
2019-02-14T01:01:28.829Z,7.37
2019-02-14T01:03:58.301Z,6.80
2019-02-14T01:06:27.973Z,6.83
2019-02-14T01:08:57.479Z,6.80
2019-02-14T01:11:28.874Z,13.40
2019-02-14T01:13:58.381Z,11.80
2019-02-14T01:16:27.793Z,12.87
2019-02-14T01:18:57.164Z,12.57
2019-02-14T01:21:26.647Z,11.73
2019-02-14T01:23:55.931Z,13.83
2019-02-14T01:26:25.530Z,15.13
2019-02-14T01:28:54.836Z,21.33
2019-02-14T01:31:24.225Z,15.13
2019-02-14T01:33:53.509Z,10.73
2019-02-14T01:36:23.005Z,11.77
2019-02-14T01:38:52.693Z,12.53
2019-02-14T01:41:22.123Z,12.60
2019-02-14T01:43:51.559Z,11.47
2019-02-14T01:46:21.001Z,14.70
2019-02-14T01:48:50.412Z,13.73
2019-02-14T01:51:19.723Z,9.90
2019-02-14T01:53:49.059Z,9.73
2019-02-14T01:56:18.427Z,5.80
2019-02-14T01:58:48.737Z,6.97
2019-02-14T02:01:18.102Z,6.20
2019-02-14T02:03:47.471Z,6.77
2019-02-14T02:06:16.888Z,6.30
2019-02-14T02:08:46.256Z,6.40
2019-02-14T02:11:15.687Z,7.33
2019-02-14T02:13:45.122Z,6.37
2019-02-14T02:16:14.463Z,5.73
2019-02-14T02:18:43.793Z,5.90
2019-02-14T02:21:13.322Z,6.97
2019-02-14T02:23:43.436Z,6.40
2019-02-14T02:26:14.144Z,5.50
2019-02-14T02:28:43.508Z,5.83
2019-02-14T02:31:12.941Z,6.43
2019-02-14T02:33:42.298Z,5.83
2019-02-14T02:36:11.570Z,6.20
2019-02-14T02:38:40.970Z,6.40
2019-02-14T02:41:12.616Z,6.63
2019-02-14T02:43:41.989Z,7.60
2019-02-14T02:46:11.952Z,5.83
2019-02-14T02:48:41.485Z,6.07
2019-02-14T02:51:10.947Z,6.83
2019-02-14T02:53:40.372Z,5.87
2019-02-14T02:56:09.644Z,5.43
2019-02-14T02:58:38.934Z,5.50
2019-02-14T03:01:08.424Z,7.40
2019-02-14T03:03:37.726Z,6.13
2019-02-14T03:06:10.637Z,4.93
2019-02-14T03:08:38.046Z,5.80
2019-02-14T03:11:07.441Z,5.37
2019-02-14T03:13:36.803Z,5.90
2019-02-14T03:16:06.098Z,5.73
2019-02-14T03:18:35.497Z,6.00
2019-02-14T03:21:04.833Z,6.57
2019-02-14T03:23:36.263Z,6.83
2019-02-14T03:26:05.669Z,6.30
2019-02-14T03:28:35.069Z,6.20
2019-02-14T03:31:04.485Z,5.93
2019-02-14T03:33:33.923Z,5.53
2019-02-14T03:36:03.307Z,5.97
2019-02-14T03:38:32.723Z,6.00
2019-02-14T03:41:02.220Z,5.00
2019-02-14T03:43:31.687Z,5.40
2019-02-14T03:46:04.011Z,6.23
2019-02-14T03:48:34.529Z,6.00
2019-02-14T03:51:03.957Z,5.43
2019-02-14T03:53:35.906Z,4.97
2019-02-14T03:56:05.340Z,4.60
2019-02-14T03:58:34.739Z,4.97
2019-02-14T04:01:04.170Z,4.63
2019-02-14T04:03:33.641Z,4.43
2019-02-14T04:06:04.187Z,5.57
2019-02-14T04:08:34.812Z,5.60
2019-02-14T04:11:04.328Z,5.00
2019-02-14T04:13:33.750Z,4.73
2019-02-14T04:16:04.479Z,4.20
2019-02-14T04:18:37.234Z,4.63
2019-02-14T04:21:07.200Z,5.60
2019-02-14T04:23:37.490Z,5.00
2019-02-14T04:26:07.416Z,5.13
2019-02-14T04:28:37.011Z,4.40
2019-02-14T04:31:06.412Z,5.40
2019-02-14T04:33:35.798Z,4.93
2019-02-14T04:36:05.330Z,5.07
2019-02-14T04:38:34.834Z,5.13
2019-02-14T04:41:04.211Z,4.73
2019-02-14T04:43:33.845Z,5.23
2019-02-14T04:46:03.148Z,5.90
2019-02-14T04:48:32.426Z,5.23
2019-02-14T04:51:01.726Z,5.13
2019-02-14T04:53:31.367Z,5.07
2019-02-14T04:56:01.425Z,5.13
2019-02-14T04:58:31.539Z,5.30
2019-02-14T05:01:02.584Z,6.27
2019-02-14T05:03:32.588Z,5.30
2019-02-14T05:06:02.429Z,6.40
2019-02-14T05:08:31.881Z,5.00
2019-02-14T05:11:01.198Z,5.33
2019-02-14T05:13:30.521Z,5.20
2019-02-14T05:15:59.930Z,5.57
2019-02-14T05:18:29.198Z,5.70
2019-02-14T05:20:58.917Z,5.97
2019-02-14T05:23:28.409Z,4.43
2019-02-14T05:25:57.803Z,5.70
2019-02-14T05:28:27.189Z,4.60
2019-02-14T05:30:57.069Z,4.57
2019-02-14T05:33:26.563Z,5.40
2019-02-14T05:35:55.939Z,4.43
2019-02-14T05:38:25.315Z,3.33
2019-02-14T05:40:54.611Z,4.20
2019-02-14T05:43:23.852Z,4.60
2019-02-14T05:45:53.322Z,4.10
2019-02-14T05:48:23.190Z,4.90
2019-02-14T05:50:53.172Z,4.60
2019-02-14T05:53:22.629Z,5.07
2019-02-14T05:55:51.985Z,5.93
2019-02-14T05:58:21.331Z,4.87
2019-02-14T06:00:50.704Z,4.93
2019-02-14T06:03:20.069Z,5.40
2019-02-14T06:05:49.539Z,5.43
2019-02-14T06:08:18.956Z,4.70
2019-02-14T06:10:50.436Z,5.87
2019-02-14T06:13:19.954Z,6.10
2019-02-14T06:15:49.771Z,4.87
2019-02-14T06:18:19.219Z,4.40
2019-02-14T06:20:48.586Z,5.27
2019-02-14T06:23:18.127Z,4.33
2019-02-14T06:25:47.805Z,4.40
2019-02-14T06:28:18.633Z,4.33
2019-02-14T06:30:48.145Z,5.30
2019-02-14T06:33:18.836Z,4.80
2019-02-14T06:35:48.790Z,4.00
2019-02-14T06:38:48.296Z,5.20
2019-02-14T06:41:19.030Z,6.03
2019-02-14T06:43:49.378Z,4.83
2019-02-14T06:46:20.462Z,5.57
2019-02-14T06:48:49.908Z,5.33
2019-02-14T06:51:19.395Z,4.53
2019-02-14T06:53:50.045Z,4.63
2019-02-14T06:56:20.123Z,4.87
2019-02-14T06:58:50.231Z,7.73
2019-02-14T07:01:19.537Z,7.50
2019-02-14T07:03:49.073Z,6.90
2019-02-14T07:06:20.345Z,5.50
2019-02-14T07:08:53.134Z,5.10
2019-02-14T07:11:22.797Z,4.40
2019-02-14T07:13:52.419Z,5.40
2019-02-14T07:16:26.158Z,5.83
2019-02-14T07:18:55.675Z,6.63
2019-02-14T07:21:25.151Z,7.33
2019-02-14T07:23:54.969Z,6.17
2019-02-14T07:26:24.793Z,6.00
2019-02-14T07:28:54.717Z,6.20
2019-02-14T07:31:24.506Z,6.37
2019-02-14T07:33:54.337Z,5.73
2019-02-14T07:36:24.711Z,6.00
2019-02-14T07:38:54.283Z,7.07
2019-02-14T07:41:24.181Z,5.50
2019-02-14T07:43:53.815Z,5.37
2019-02-14T07:46:23.692Z,6.80
2019-02-14T07:48:56.283Z,5.67
2019-02-14T07:51:25.992Z,5.50
2019-02-14T07:53:55.584Z,4.83
2019-02-14T07:56:25.228Z,5.47
2019-02-14T07:58:54.701Z,4.90
2019-02-14T08:01:24.500Z,5.30
2019-02-14T08:03:59.342Z,4.77
2019-02-14T08:06:29.107Z,4.80
2019-02-14T08:08:58.850Z,5.73
2019-02-14T08:11:28.634Z,5.30
2019-02-14T08:13:59.403Z,5.17
2019-02-14T08:16:30.326Z,4.70
2019-02-14T08:19:01.075Z,6.80
2019-02-14T08:21:30.973Z,5.30
2019-02-14T08:24:04.638Z,3.67
2019-02-14T08:26:34.202Z,5.47
2019-02-14T08:29:04.036Z,3.50
2019-02-14T08:31:37.788Z,4.47
2019-02-14T08:34:10.534Z,3.97
2019-02-14T08:36:45.771Z,3.97
2019-02-14T08:39:15.535Z,3.60
2019-02-14T08:41:45.134Z,4.27
2019-02-14T08:44:14.756Z,4.23
2019-02-14T08:46:45.282Z,3.77
2019-02-14T08:49:15.899Z,3.40
2019-02-14T08:51:47.313Z,4.07
2019-02-14T08:54:16.744Z,3.63
2019-02-14T08:56:46.248Z,4.00
2019-02-14T08:59:22.454Z,3.37
2019-02-14T09:01:52.152Z,4.43
2019-02-14T09:04:23.283Z,3.98
2019-02-14T09:06:52.824Z,3.67
2019-02-14T09:09:22.329Z,13.90
2019-02-14T09:11:51.914Z,6.53
2019-02-14T09:14:27.116Z,4.67
2019-02-14T09:16:56.825Z,5.00
2019-02-14T09:19:41.430Z,5.10
2019-02-14T09:22:26.761Z,5.30
2019-02-14T09:24:56.468Z,8.77
2019-02-14T09:27:28.393Z,7.60
2019-02-14T09:29:58.149Z,4.60
2019-02-14T09:32:27.644Z,10.90
2019-02-14T09:34:59.125Z,4.63
2019-02-14T09:37:28.605Z,4.90
2019-02-14T09:39:58.229Z,4.80
2019-02-14T09:42:29.162Z,4.13
2019-02-14T09:44:58.907Z,5.80
2019-02-14T09:47:28.451Z,5.40
2019-02-14T09:49:58.991Z,4.37
2019-02-14T09:52:28.531Z,5.17
2019-02-14T09:55:06.447Z,4.77
2019-02-14T09:57:35.958Z,6.70
2019-02-14T10:00:09.859Z,5.50
2019-02-14T10:02:41.830Z,6.13
2019-02-14T10:05:11.682Z,8.10
2019-02-14T10:07:42.078Z,5.17
2019-02-14T10:10:14.156Z,5.40
2019-02-14T10:12:43.586Z,5.10
2019-02-14T10:15:14.160Z,5.50
2019-02-14T10:17:43.622Z,6.50
2019-02-14T10:20:14.490Z,6.23
2019-02-14T10:22:44.894Z,5.93
2019-02-14T10:25:14.448Z,6.83
2019-02-14T10:27:43.802Z,6.23
2019-02-14T10:30:15.700Z,7.50
2019-02-14T10:32:47.506Z,6.83
2019-02-14T10:35:16.913Z,6.67
2019-02-14T10:37:47.472Z,6.77
2019-02-14T10:40:16.864Z,6.63
2019-02-14T10:42:46.118Z,7.67
2019-02-14T10:45:19.608Z,8.00
2019-02-14T10:47:48.875Z,7.37
2019-02-14T10:50:24.634Z,6.77
2019-02-14T10:52:56.025Z,7.57
2019-02-14T10:55:29.350Z,7.27
2019-02-14T10:57:58.835Z,6.93
2019-02-14T11:00:32.529Z,7.23
2019-02-14T11:03:01.965Z,8.33
2019-02-14T11:05:37.614Z,7.70
2019-02-14T11:08:07.090Z,7.80
2019-02-14T11:10:36.581Z,6.07
2019-02-14T11:13:06.115Z,6.43
2019-02-14T11:15:35.775Z,9.37
2019-02-14T11:18:06.537Z,6.60
2019-02-14T11:20:38.247Z,8.00
2019-02-14T11:23:07.639Z,7.00
2019-02-14T11:25:40.304Z,6.20
2019-02-14T11:28:10.713Z,7.17
2019-02-14T11:30:40.169Z,7.90
2019-02-14T11:33:15.465Z,7.23
2019-02-14T11:35:47.407Z,6.90
2019-02-14T11:38:17.006Z,6.30
2019-02-14T11:40:47.522Z,6.20
2019-02-14T11:43:16.972Z,6.00
2019-02-14T11:45:46.629Z,6.60
2019-02-14T11:48:16.978Z,6.77
2019-02-14T11:50:46.526Z,5.40
2019-02-14T11:53:15.928Z,5.50
2019-02-14T11:55:45.423Z,5.90
2019-02-14T11:58:15.191Z,5.93
2019-02-14T12:00:44.939Z,6.80
2019-02-14T12:03:15.358Z,5.40
2019-02-14T12:05:45.100Z,6.10
2019-02-14T12:08:14.765Z,6.67
2019-02-14T12:10:44.500Z,7.00
2019-02-14T12:13:14.131Z,7.07
2019-02-14T12:15:44.022Z,6.60
2019-02-14T12:18:15.803Z,7.03
2019-02-14T12:20:45.452Z,6.50
2019-02-14T12:23:16.467Z,6.50
2019-02-14T12:26:30.443Z,7.90
2019-02-14T12:29:00.703Z,5.30
2019-02-14T12:31:31.265Z,6.37
2019-02-14T12:34:00.779Z,6.43
2019-02-14T12:36:31.664Z,6.63
2019-02-14T12:39:08.664Z,7.10
2019-02-14T12:41:35.345Z,7.30
2019-02-14T12:44:05.402Z,6.30
2019-02-14T12:46:36.007Z,6.40
2019-02-14T12:49:05.951Z,6.20
2019-02-14T12:51:35.680Z,6.30
2019-02-14T12:54:08.660Z,6.10
2019-02-14T12:56:38.892Z,6.20
2019-02-14T12:59:21.975Z,6.10
2019-02-14T13:01:52.027Z,6.77
2019-02-14T13:04:22.949Z,5.83
2019-02-14T13:06:53.133Z,7.20
2019-02-14T13:09:35.498Z,5.80
2019-02-14T13:12:12.497Z,7.67
2019-02-14T13:14:42.823Z,6.33
2019-02-14T13:17:12.718Z,6.23
2019-02-14T13:19:50.464Z,7.10
2019-02-14T13:22:21.250Z,6.20
2019-02-14T13:24:52.889Z,6.20
2019-02-14T13:27:23.960Z,5.70
2019-02-14T13:29:55.336Z,6.10
2019-02-14T13:32:31.242Z,6.40
2019-02-14T13:35:09.332Z,6.53
2019-02-14T13:37:40.763Z,5.90
2019-02-14T13:40:11.486Z,5.73
2019-02-14T13:42:42.306Z,5.30
2019-02-14T13:45:15.110Z,5.90
2019-02-14T13:47:45.152Z,5.90
2019-02-14T13:50:19.517Z,5.63
2019-02-14T13:52:51.833Z,5.30
2019-02-14T13:56:02.002Z,5.27
2019-02-14T13:58:42.881Z,5.80
2019-02-14T14:01:12.989Z,5.20
2019-02-14T14:03:42.681Z,5.17
2019-02-14T14:06:13.379Z,5.67
2019-02-14T14:08:44.237Z,5.50
2019-02-14T14:11:14.416Z,5.43
2019-02-14T14:13:47.445Z,5.83
2019-02-14T14:19:16.133Z,5.27
2019-02-14T14:21:48.690Z,5.43
2019-02-14T14:24:28.563Z,5.43
2019-02-14T14:27:19.965Z,5.37
2019-02-14T14:29:49.920Z,5.03
2019-02-14T14:32:27.423Z,5.40
2019-02-14T14:34:58.459Z,5.30
2019-02-14T14:37:29.440Z,5.30
2019-02-14T14:39:59.428Z,5.17
2019-02-14T14:42:59.008Z,4.87
2019-02-14T14:45:38.884Z,5.37
2019-02-14T14:48:19.224Z,5.20
2019-02-14T14:50:44.182Z,5.53
2019-02-14T14:53:20.392Z,5.43
2019-02-14T14:55:59.538Z,3.57
2019-02-14T14:58:30.992Z,4.37
2019-02-14T15:01:04.164Z,4.37
2019-02-14T15:03:40.708Z,5.40
2019-02-14T15:06:15.338Z,4.50
2019-02-14T15:08:48.644Z,4.33
2019-02-14T15:11:37.583Z,4.30
2019-02-14T15:14:10.981Z,4.20
2019-02-14T15:16:43.678Z,4.30
2019-02-14T15:19:16.413Z,3.50
2019-02-14T15:21:58.690Z,3.63
2019-02-14T15:24:28.160Z,4.30
2019-02-14T15:26:57.558Z,3.63
2019-02-14T15:29:31.456Z,4.20
2019-02-14T15:32:00.923Z,3.87
2019-02-14T15:34:30.476Z,5.07
2019-02-14T15:36:59.935Z,3.90
2019-02-14T15:39:30.201Z,3.87
2019-02-14T15:42:03.255Z,3.27
2019-02-14T15:44:33.949Z,3.90
2019-02-14T15:47:05.996Z,4.00
2019-02-14T15:49:40.447Z,4.20
2019-02-14T15:52:14.699Z,4.47
2019-02-14T15:54:45.302Z,4.40
2019-02-14T15:57:20.446Z,3.80
2019-02-14T15:59:52.059Z,5.57
2019-02-14T16:02:28.869Z,4.00
2019-02-14T16:04:59.509Z,4.87
2019-02-14T16:07:31.879Z,4.70
2019-02-14T16:10:05.913Z,3.97
2019-02-14T16:12:45.879Z,4.33
2019-02-14T16:15:16.098Z,5.27
2019-02-14T16:17:48.653Z,4.63
2019-02-14T16:20:19.829Z,4.93
2019-02-14T16:22:49.817Z,5.30
2019-02-14T16:25:20.224Z,5.00
2019-02-14T16:27:50.681Z,4.27
2019-02-14T16:30:21.316Z,5.50
2019-02-14T16:32:53.271Z,4.53
2019-02-14T16:35:25.099Z,4.57
2019-02-14T16:38:01.543Z,4.53
2019-02-14T16:40:38.220Z,5.53
2019-02-14T16:43:02.810Z,5.20
2019-02-14T16:45:32.568Z,6.63
2019-02-14T16:48:02.148Z,5.80
2019-02-14T16:50:31.908Z,6.10
2019-02-14T16:53:02.838Z,6.20
2019-02-14T16:55:40.036Z,6.47
2019-02-14T16:58:13.238Z,6.43
2019-02-14T17:00:42.924Z,6.03
2019-02-14T17:03:13.870Z,6.80
2019-02-14T17:05:43.274Z,8.87
2019-02-14T17:08:12.927Z,6.70
2019-02-14T17:10:42.404Z,8.30
2019-02-14T17:13:13.158Z,7.90
2019-02-14T17:15:42.655Z,7.57
2019-02-14T17:18:19.031Z,7.27
2019-02-14T17:20:55.822Z,7.40
2019-02-14T17:23:25.322Z,8.87
2019-02-14T17:25:54.921Z,8.70
2019-02-14T17:28:25.719Z,8.50
2019-02-14T17:30:56.529Z,8.70
2019-02-14T17:33:26.583Z,8.87
2019-02-14T17:35:58.955Z,8.43
2019-02-14T17:38:28.679Z,8.83
2019-02-14T17:40:59.477Z,9.23
2019-02-14T17:43:29.103Z,8.73
2019-02-14T17:45:59.599Z,11.73
2019-02-14T17:48:29.386Z,10.53
2019-02-14T17:51:00.493Z,8.90
2019-02-14T17:53:31.353Z,7.90
2019-02-14T17:56:02.631Z,8.07
2019-02-14T17:58:36.945Z,7.03
2019-02-14T18:01:07.079Z,7.57
2019-02-14T18:03:39.213Z,6.17
2019-02-14T18:06:11.744Z,6.83
2019-02-14T18:08:42.729Z,19.90
2019-02-14T18:11:12.751Z,14.30
2019-02-14T18:13:43.823Z,9.17
2019-02-14T18:16:14.309Z,8.20
2019-02-14T18:18:46.538Z,7.70
2019-02-14T18:21:16.907Z,7.07
2019-02-14T18:24:09.209Z,7.50
2019-02-14T18:26:40.844Z,8.27
2019-02-14T18:29:15.915Z,7.87
2019-02-14T18:31:46.051Z,7.47
2019-02-14T18:34:16.032Z,8.23
2019-02-14T18:40:35.158Z,5.17
2019-02-14T18:43:04.914Z,6.50
2019-02-14T18:45:34.637Z,5.67
2019-02-14T18:48:04.141Z,6.30
2019-02-14T18:50:44.382Z,5.50
2019-02-14T18:54:00.742Z,6.90
2019-02-14T18:56:31.695Z,5.43
2019-02-14T18:59:08.212Z,6.47
2019-02-14T19:01:39.493Z,5.27
2019-02-14T19:04:10.225Z,6.03
2019-02-14T19:06:40.685Z,5.00
2019-02-14T19:09:11.266Z,5.33
2019-02-14T19:11:41.089Z,6.37
2019-02-14T19:14:10.746Z,6.60
2019-02-14T19:16:40.230Z,7.27
2019-02-14T19:19:16.921Z,6.87
2019-02-14T19:21:46.441Z,7.40
2019-02-14T19:24:18.770Z,8.90
2019-02-14T19:26:53.062Z,6.57
2019-02-14T19:29:22.863Z,6.70
2019-02-14T19:31:53.336Z,7.07
2019-02-14T19:34:29.236Z,6.87
2019-02-14T19:36:58.852Z,7.33
2019-02-14T19:39:33.305Z,6.40
2019-02-14T19:42:03.899Z,5.80
2019-02-14T19:44:40.095Z,7.03
2019-02-14T19:47:09.650Z,5.87
2019-02-14T19:49:39.103Z,5.20
2019-02-14T19:52:08.563Z,5.77
2019-02-14T19:54:59.851Z,6.10
2019-02-14T19:57:30.601Z,6.53
2019-02-14T20:00:01.053Z,5.37
2019-02-14T20:02:31.640Z,4.20
2019-02-14T20:05:02.310Z,0.60
2019-02-14T20:07:34.097Z,0.63
2019-02-14T20:10:03.765Z,0.60
2019-02-14T20:12:35.217Z,0.80
2019-02-14T20:15:06.701Z,0.80
2019-02-14T20:17:39.397Z,1.07
2019-02-14T20:20:10.147Z,2.50
2019-02-14T20:22:45.751Z,1.13
2019-02-14T20:25:17.183Z,1.83
2019-02-14T20:27:46.895Z,0.70
2019-02-14T20:30:17.757Z,0.60
2019-02-14T20:32:49.554Z,0.60
2019-02-14T20:35:19.227Z,0.60
2019-02-14T20:37:54.072Z,0.60
2019-02-14T20:40:32.059Z,0.63
2019-02-14T20:43:02.672Z,0.90
2019-02-14T20:45:35.232Z,0.70
2019-02-14T20:48:07.164Z,0.60
2019-02-14T20:50:36.920Z,1.67
2019-02-14T20:53:07.393Z,0.73
2019-02-14T20:55:36.751Z,1.77
2019-02-14T20:58:10.200Z,0.70
2019-02-14T21:00:40.928Z,9.30
2019-02-14T21:03:19.692Z,0.63
2019-02-14T21:05:52.374Z,0.90
2019-02-14T21:08:21.695Z,0.67
2019-02-14T21:10:52.614Z,1.30
2019-02-14T21:13:22.190Z,0.60
2019-02-14T21:15:52.093Z,1.43
2019-02-14T21:18:21.532Z,0.77
2019-02-14T21:20:50.996Z,0.60
2019-02-14T21:23:20.486Z,0.70
2019-02-14T21:25:50.052Z,0.60
2019-02-14T21:28:20.430Z,1.40
2019-02-14T21:30:50.058Z,0.70
2019-02-14T21:33:19.955Z,0.80
2019-02-14T21:35:55.429Z,0.70
2019-02-14T21:38:26.035Z,0.80
2019-02-14T21:40:55.539Z,1.47
2019-02-14T21:43:25.003Z,0.70
2019-02-14T21:45:54.332Z,0.90
2019-02-14T21:48:24.764Z,1.33
2019-02-14T21:50:55.191Z,3.43
2019-02-14T21:53:24.569Z,0.60
2019-02-14T21:55:56.000Z,1.30
2019-02-14T21:58:26.405Z,3.30
2019-02-14T22:00:55.788Z,1.47
2019-02-14T22:03:26.185Z,1.40
2019-02-14T22:05:57.766Z,1.53
2019-02-14T22:08:27.264Z,0.60
2019-02-14T22:10:57.780Z,0.60
2019-02-14T22:13:27.231Z,0.50
2019-02-14T22:16:07.749Z,1.43
2019-02-14T22:18:37.149Z,0.60
2019-02-14T22:21:06.506Z,0.80
2019-02-14T22:23:35.842Z,0.60
2019-02-14T22:26:05.172Z,0.77
2019-02-14T22:28:36.628Z,0.60
2019-02-14T22:31:07.100Z,2.77
2019-02-14T22:33:36.612Z,0.70
2019-02-14T22:36:13.050Z,0.70
2019-02-14T22:38:44.225Z,0.50
2019-02-14T22:41:13.700Z,0.87
2019-02-14T22:43:45.228Z,0.70
2019-02-14T22:46:14.642Z,0.60
2019-02-14T22:48:43.954Z,0.70
2019-02-14T22:51:15.406Z,0.60
2019-02-14T22:53:46.037Z,0.60
2019-02-14T22:56:15.415Z,0.60
2019-02-14T22:58:44.901Z,1.43
2019-02-14T23:01:14.871Z,0.60
2019-02-14T23:03:45.366Z,0.87
2019-02-14T23:06:14.924Z,0.60
2019-02-14T23:08:44.258Z,0.57
2019-02-14T23:11:19.466Z,0.70
2019-02-14T23:13:49.761Z,0.60
2019-02-14T23:16:28.959Z,0.60
2019-02-14T23:18:58.336Z,0.60
2019-02-14T23:21:27.761Z,0.60
2019-02-14T23:23:57.043Z,0.60
2019-02-14T23:26:27.401Z,2.00
2019-02-14T23:28:56.879Z,0.60
2019-02-14T23:31:26.400Z,0.50
2019-02-14T23:33:56.751Z,0.60
2019-02-14T23:36:26.047Z,0.60
2019-02-14T23:38:56.491Z,0.60
2019-02-14T23:41:25.907Z,0.80
2019-02-14T23:43:56.306Z,0.73
2019-02-14T23:46:25.599Z,0.60
2019-02-14T23:48:56.069Z,0.60
2019-02-14T23:51:25.503Z,0.50
2019-02-14T23:53:55.811Z,0.60
2019-02-14T23:56:25.315Z,0.60
2019-02-14T23:58:54.586Z,0.50
